createdAt,value
2024-02-29T00:00:22.777Z,35.45
2024-02-29T00:02:50.796Z,34.95
2024-02-29T00:05:19.151Z,34.42
2024-02-29T00:07:47.819Z,34.25
2024-02-29T00:10:17.652Z,34.85
2024-02-29T00:12:45.795Z,35.90
2024-02-29T00:15:16.097Z,36.30
2024-02-29T00:17:45.626Z,36.30
2024-02-29T00:20:14.220Z,36.10
2024-02-29T00:22:43.025Z,35.60
2024-02-29T00:25:11.336Z,34.03
2024-02-29T00:27:41.580Z,35.55
2024-02-29T00:30:11.482Z,35.67
2024-02-29T00:32:39.676Z,35.60
2024-02-29T00:35:10.303Z,35.03
2024-02-29T00:37:38.524Z,33.35
2024-02-29T00:40:08.441Z,34.75
2024-02-29T00:42:36.994Z,33.15
2024-02-29T00:45:06.428Z,31.38
2024-02-29T00:47:34.489Z,33.85
2024-02-29T00:50:02.654Z,33.42
2024-02-29T00:52:32.076Z,32.72
2024-02-29T00:55:03.241Z,33.22
2024-02-29T00:57:31.591Z,32.95
2024-02-29T00:59:59.685Z,33.33
2024-02-29T01:02:27.829Z,32.70
2024-02-29T01:04:55.844Z,31.88
2024-02-29T01:07:23.967Z,31.77
2024-02-29T01:09:53.774Z,32.47
2024-02-29T01:12:24.800Z,33.10
2024-02-29T01:14:53.101Z,33.45
2024-02-29T01:17:24.005Z,32.10
2024-02-29T01:19:52.123Z,31.77
2024-02-29T01:22:21.638Z,31.00
2024-02-29T01:24:49.736Z,29.73
2024-02-29T01:27:19.654Z,31.10
2024-02-29T01:29:47.704Z,29.33
2024-02-29T01:32:22.178Z,29.17
2024-02-29T01:34:54.466Z,28.77
2024-02-29T01:37:22.506Z,27.00
2024-02-29T01:39:50.623Z,27.00
2024-02-29T01:42:21.163Z,27.05
2024-02-29T01:44:57.831Z,26.60
2024-02-29T01:47:26.636Z,25.38
2024-02-29T01:49:59.145Z,27.20
2024-02-29T01:52:30.896Z,26.60
2024-02-29T01:54:59.261Z,26.55
2024-02-29T01:57:32.551Z,27.45
2024-02-29T02:00:01.722Z,26.90
2024-02-29T02:02:29.810Z,27.42
2024-02-29T02:04:58.066Z,28.67
2024-02-29T02:07:26.305Z,29.50
2024-02-29T02:09:54.379Z,29.85
2024-02-29T02:12:22.740Z,30.98
2024-02-29T02:14:52.182Z,31.35
2024-02-29T02:17:20.327Z,31.50
2024-02-29T02:19:49.730Z,32.13
2024-02-29T02:22:19.343Z,34.92
2024-02-29T02:24:47.599Z,35.70
2024-02-29T02:27:15.664Z,35.08
2024-02-29T02:29:43.782Z,35.00
2024-02-29T02:32:12.439Z,35.63
2024-02-29T02:34:40.487Z,35.45
2024-02-29T02:37:10.824Z,32.20
2024-02-29T02:39:40.603Z,33.80
2024-02-29T02:42:08.769Z,31.50
2024-02-29T02:44:36.859Z,32.58
2024-02-29T02:47:04.993Z,35.35
2024-02-29T02:49:33.112Z,33.92
2024-02-29T02:52:01.297Z,34.35
2024-02-29T02:54:29.380Z,32.20
2024-02-29T02:56:58.877Z,29.83
2024-02-29T02:59:27.009Z,31.30
2024-02-29T03:01:56.963Z,30.52
2024-02-29T03:04:26.122Z,29.00
2024-02-29T03:06:54.258Z,29.83
2024-02-29T03:09:22.370Z,29.23
2024-02-29T03:11:50.456Z,29.98
2024-02-29T03:14:19.876Z,30.05
2024-02-29T03:16:48.404Z,31.60
2024-02-29T03:19:16.633Z,30.10
2024-02-29T03:21:44.792Z,30.35
2024-02-29T03:24:12.869Z,30.23
2024-02-29T03:26:40.927Z,32.15
2024-02-29T03:29:09.324Z,33.38
2024-02-29T03:31:38.777Z,34.03
2024-02-29T03:34:06.976Z,34.42
2024-02-29T03:36:35.178Z,35.13
2024-02-29T03:39:06.163Z,34.22
2024-02-29T03:41:34.425Z,36.90
2024-02-29T03:44:02.473Z,36.30
2024-02-29T03:46:30.501Z,35.63
2024-02-29T03:48:59.992Z,37.67
2024-02-29T03:51:28.436Z,39.90
2024-02-29T03:53:56.539Z,37.88
2024-02-29T03:56:27.162Z,39.20
2024-02-29T03:58:55.142Z,40.33
2024-02-29T04:01:23.337Z,39.47
2024-02-29T04:03:51.493Z,38.80
2024-02-29T04:06:20.935Z,38.97
2024-02-29T04:08:49.069Z,39.67
2024-02-29T04:11:17.167Z,36.25
2024-02-29T04:13:46.087Z,34.85
2024-02-29T04:16:14.871Z,35.58
2024-02-29T04:18:43.012Z,36.22
2024-02-29T04:21:11.086Z,33.65
2024-02-29T04:23:40.495Z,33.92
2024-02-29T04:26:09.018Z,39.40
2024-02-29T04:28:37.064Z,38.80
2024-02-29T04:31:06.244Z,38.88
2024-02-29T04:33:34.423Z,38.80
2024-02-29T04:36:02.549Z,39.58
2024-02-29T04:38:30.610Z,36.47
2024-02-29T04:41:00.040Z,38.97
2024-02-29T04:43:31.569Z,41.58
2024-02-29T04:46:00.798Z,43.53
2024-02-29T04:48:28.980Z,42.20
2024-02-29T04:50:57.203Z,37.53
2024-02-29T04:53:25.255Z,40.38
2024-02-29T04:55:53.429Z,41.05
2024-02-29T04:58:23.194Z,41.58
2024-02-29T05:00:51.353Z,45.42
2024-02-29T05:03:19.521Z,41.10
2024-02-29T05:05:47.732Z,44.40
2024-02-29T05:08:15.900Z,42.65
2024-02-29T05:10:44.113Z,43.75
2024-02-29T05:13:12.275Z,43.45
2024-02-29T05:15:41.872Z,46.35
2024-02-29T05:18:10.103Z,46.75
2024-02-29T05:20:38.237Z,44.72
2024-02-29T05:23:07.105Z,44.47
2024-02-29T05:25:36.956Z,46.45
2024-02-29T05:28:07.118Z,47.28
2024-02-29T05:30:35.226Z,47.67
2024-02-29T05:33:05.122Z,49.20
2024-02-29T05:35:34.883Z,48.30
2024-02-29T05:38:02.979Z,50.15
2024-02-29T05:40:34.050Z,49.17
2024-02-29T05:43:04.801Z,52.00
2024-02-29T05:45:34.582Z,51.53
2024-02-29T05:48:05.365Z,49.83
2024-02-29T05:50:34.435Z,50.40
2024-02-29T05:53:02.840Z,49.28
2024-02-29T05:55:31.050Z,47.95
2024-02-29T05:57:59.254Z,47.60
2024-02-29T06:00:27.597Z,46.08
2024-02-29T06:02:55.716Z,45.25
2024-02-29T06:05:25.303Z,45.78
2024-02-29T06:07:53.432Z,45.63
2024-02-29T06:10:22.016Z,44.35
2024-02-29T06:12:50.149Z,44.85
2024-02-29T06:15:19.196Z,45.30
2024-02-29T06:17:48.122Z,44.95
2024-02-29T06:20:16.474Z,43.35
2024-02-29T06:22:48.531Z,43.55
2024-02-29T06:25:17.659Z,44.85
2024-02-29T06:27:45.955Z,45.28
2024-02-29T06:30:15.011Z,43.08
2024-02-29T06:32:45.255Z,45.25
2024-02-29T06:35:13.854Z,42.17
2024-02-29T06:37:43.722Z,44.03
2024-02-29T06:40:14.763Z,44.50
2024-02-29T06:42:43.215Z,42.33
2024-02-29T06:45:11.857Z,43.60
2024-02-29T06:47:42.475Z,44.95
2024-02-29T06:50:13.246Z,42.65
2024-02-29T06:52:42.812Z,41.13
2024-02-29T06:55:11.328Z,41.03
2024-02-29T06:57:40.979Z,42.47
2024-02-29T07:00:10.573Z,41.90
2024-02-29T07:02:39.350Z,39.92
2024-02-29T07:05:10.903Z,40.53
2024-02-29T07:07:39.121Z,38.78
2024-02-29T07:10:08.758Z,38.65
2024-02-29T07:12:41.914Z,39.50
2024-02-29T07:15:11.076Z,40.78
2024-02-29T07:17:39.343Z,39.80
2024-02-29T07:20:09.193Z,40.42
2024-02-29T07:22:38.305Z,39.53
2024-02-29T07:25:08.821Z,39.33
2024-02-29T07:27:38.911Z,37.20
2024-02-29T07:30:10.449Z,39.40
2024-02-29T07:32:39.107Z,39.55
2024-02-29T07:35:07.858Z,38.05
2024-02-29T07:37:39.939Z,37.78
2024-02-29T07:40:09.642Z,36.25
2024-02-29T07:42:40.305Z,37.78
2024-02-29T07:45:11.477Z,36.58
2024-02-29T07:47:40.913Z,40.58
2024-02-29T07:50:11.114Z,37.22
2024-02-29T07:52:39.645Z,35.92
2024-02-29T07:55:08.066Z,35.13
2024-02-29T07:57:36.410Z,35.15
2024-02-29T08:00:05.524Z,42.20
2024-02-29T08:02:36.686Z,35.05
2024-02-29T08:05:05.175Z,34.42
2024-02-29T08:07:33.357Z,31.55
2024-02-29T08:10:01.574Z,30.27
2024-02-29T08:12:30.600Z,31.20
2024-02-29T08:14:58.812Z,30.98
2024-02-29T08:17:28.453Z,30.77
2024-02-29T08:19:58.220Z,30.73
2024-02-29T08:22:29.027Z,31.70
2024-02-29T08:24:58.324Z,29.13
2024-02-29T08:27:28.366Z,25.80
2024-02-29T08:29:56.485Z,24.90
2024-02-29T08:32:24.875Z,26.95
2024-02-29T08:34:56.342Z,25.40
2024-02-29T08:37:25.937Z,27.25
2024-02-29T08:39:54.693Z,27.23
2024-02-29T08:42:23.106Z,26.02
2024-02-29T08:44:56.305Z,25.55
2024-02-29T08:47:25.806Z,24.70
2024-02-29T08:49:54.624Z,23.48
2024-02-29T08:52:22.821Z,22.67
2024-02-29T08:54:52.873Z,22.98
2024-02-29T08:57:21.208Z,23.77
2024-02-29T08:59:49.592Z,24.48
2024-02-29T09:02:19.356Z,24.17
2024-02-29T09:04:47.549Z,23.20
2024-02-29T09:07:16.241Z,22.55
2024-02-29T09:09:44.507Z,23.85
2024-02-29T09:12:16.047Z,23.98
2024-02-29T09:14:44.255Z,26.10
2024-02-29T09:17:12.494Z,26.63
2024-02-29T09:19:40.793Z,24.30
2024-02-29T09:22:09.251Z,28.52
2024-02-29T09:24:37.915Z,26.60
2024-02-29T09:27:06.782Z,25.90
2024-02-29T09:29:36.538Z,25.80
2024-02-29T09:32:05.110Z,26.50
2024-02-29T09:34:38.402Z,25.80
2024-02-29T09:37:08.324Z,26.00
2024-02-29T09:39:38.832Z,29.27
2024-02-29T09:42:12.782Z,24.90
2024-02-29T09:44:45.936Z,26.73
2024-02-29T09:47:15.852Z,26.38
2024-02-29T09:49:48.887Z,26.30
2024-02-29T09:52:17.938Z,25.58
2024-02-29T09:54:47.770Z,26.75
2024-02-29T09:57:16.547Z,26.45
2024-02-29T09:59:46.470Z,25.60
2024-02-29T10:02:17.428Z,24.50
2024-02-29T10:04:47.491Z,22.50
2024-02-29T10:07:16.928Z,23.85
2024-02-29T10:09:45.687Z,24.52
2024-02-29T10:12:18.708Z,23.05
2024-02-29T10:14:51.372Z,22.75
2024-02-29T10:17:20.015Z,22.35
2024-02-29T10:19:53.459Z,22.52
2024-02-29T10:22:22.432Z,23.13
2024-02-29T10:24:55.804Z,21.83
2024-02-29T10:27:27.512Z,22.05
2024-02-29T10:29:59.196Z,22.15
2024-02-29T10:32:27.630Z,24.30
2024-02-29T10:34:58.205Z,23.48
2024-02-29T10:37:26.552Z,25.10
2024-02-29T10:39:54.900Z,25.73
2024-02-29T10:42:28.338Z,24.02
2024-02-29T10:44:59.876Z,23.70
2024-02-29T10:47:31.406Z,24.70
2024-02-29T10:50:06.089Z,23.95
2024-02-29T10:52:40.823Z,24.40
2024-02-29T10:55:14.109Z,25.15
2024-02-29T10:57:50.302Z,24.58
2024-02-29T11:00:26.364Z,23.77
2024-02-29T11:02:58.282Z,23.23
2024-02-29T11:05:27.554Z,23.48
2024-02-29T11:07:55.192Z,22.63
2024-02-29T11:10:24.008Z,24.02
2024-02-29T11:12:58.810Z,21.85
2024-02-29T11:15:29.825Z,21.83
2024-02-29T11:17:59.022Z,22.50
2024-02-29T11:20:29.176Z,21.38
2024-02-29T11:23:10.861Z,21.38
2024-02-29T11:25:44.021Z,21.30
2024-02-29T11:28:13.246Z,22.70
2024-02-29T11:30:44.789Z,23.50
2024-02-29T11:33:13.226Z,24.00
2024-02-29T11:35:43.359Z,23.08
2024-02-29T11:38:15.640Z,22.38
2024-02-29T11:40:45.699Z,21.23
2024-02-29T11:43:14.141Z,21.30
2024-02-29T11:45:44.174Z,20.85
2024-02-29T11:48:12.328Z,20.60
2024-02-29T11:50:40.525Z,20.98
2024-02-29T11:53:08.774Z,20.10
2024-02-29T11:55:37.152Z,19.95
2024-02-29T11:58:06.424Z,19.58
2024-02-29T12:00:34.627Z,19.67
2024-02-29T12:03:05.556Z,18.75
2024-02-29T12:05:35.968Z,19.52
2024-02-29T12:08:05.212Z,18.83
2024-02-29T12:10:33.509Z,17.80
2024-02-29T12:13:01.888Z,18.80
2024-02-29T12:15:30.480Z,19.35
2024-02-29T12:18:00.564Z,18.33
2024-02-29T12:20:30.563Z,18.00
2024-02-29T12:23:02.122Z,17.17
2024-02-29T12:25:30.311Z,17.08
2024-02-29T12:27:58.621Z,17.92
2024-02-29T12:30:26.702Z,16.40
2024-02-29T12:32:54.865Z,15.68
2024-02-29T12:35:28.480Z,16.75
2024-02-29T12:37:59.308Z,16.70
2024-02-29T12:40:30.688Z,16.70
2024-02-29T12:42:59.828Z,15.25
2024-02-29T12:45:29.441Z,16.50
2024-02-29T12:47:57.925Z,17.40
2024-02-29T12:50:26.171Z,17.02
2024-02-29T12:52:57.652Z,17.25
2024-02-29T12:55:27.267Z,17.25
2024-02-29T12:57:55.530Z,16.42
2024-02-29T13:00:25.969Z,16.02
2024-02-29T13:02:55.161Z,17.08
2024-02-29T13:05:25.403Z,17.75
2024-02-29T13:07:53.887Z,17.38
2024-02-29T13:10:23.633Z,18.60
2024-02-29T13:12:57.382Z,18.55
2024-02-29T13:15:31.603Z,18.55
2024-02-29T13:17:59.708Z,18.27
2024-02-29T13:20:31.207Z,18.23
2024-02-29T13:23:00.028Z,18.40
2024-02-29T13:25:28.366Z,16.63
2024-02-29T13:27:58.081Z,18.23
2024-02-29T13:30:26.321Z,17.90
2024-02-29T13:32:53.539Z,16.75
2024-02-29T13:35:21.935Z,16.88
2024-02-29T13:37:50.100Z,18.02
2024-02-29T13:40:18.331Z,16.42
2024-02-29T13:42:48.681Z,16.25
2024-02-29T13:45:20.640Z,17.52
2024-02-29T13:47:51.868Z,15.80
2024-02-29T13:50:22.156Z,16.38
2024-02-29T13:52:50.700Z,17.52
2024-02-29T13:55:19.077Z,16.77
2024-02-29T13:57:47.372Z,15.73
2024-02-29T14:00:17.410Z,17.52
2024-02-29T14:02:48.598Z,17.10
2024-02-29T14:05:17.886Z,16.27
2024-02-29T14:07:48.712Z,17.17
2024-02-29T14:10:17.797Z,17.35
2024-02-29T14:12:46.818Z,16.25
2024-02-29T14:15:15.643Z,16.40
2024-02-29T14:17:45.327Z,16.90
2024-02-29T14:20:13.823Z,16.80
2024-02-29T14:22:41.952Z,18.17
2024-02-29T14:25:10.776Z,17.77
2024-02-29T14:27:39.644Z,16.48
2024-02-29T14:30:10.558Z,16.63
2024-02-29T14:32:39.942Z,17.67
2024-02-29T14:35:10.884Z,16.77
2024-02-29T14:37:39.329Z,16.30
2024-02-29T14:40:12.419Z,16.58
2024-02-29T14:42:41.272Z,16.65
2024-02-29T14:45:10.442Z,15.98
2024-02-29T14:47:38.646Z,17.63
2024-02-29T14:50:09.054Z,16.83
2024-02-29T14:52:40.638Z,16.85
2024-02-29T14:55:09.745Z,17.08
2024-02-29T14:57:38.029Z,16.50
2024-02-29T15:00:15.272Z,18.02
2024-02-29T15:02:44.542Z,17.10
2024-02-29T15:05:12.903Z,17.83
2024-02-29T15:07:43.299Z,18.83
2024-02-29T15:10:12.929Z,17.95
2024-02-29T15:12:41.813Z,17.35
2024-02-29T15:15:11.514Z,17.73
2024-02-29T15:17:40.160Z,18.83
2024-02-29T15:20:11.286Z,18.52
2024-02-29T15:22:40.770Z,19.40
2024-02-29T15:25:17.002Z,17.90
2024-02-29T15:27:47.487Z,17.63
2024-02-29T15:30:16.335Z,18.73
2024-02-29T15:32:44.623Z,18.20
2024-02-29T15:35:12.957Z,18.40
2024-02-29T15:37:41.445Z,18.63
2024-02-29T15:40:12.647Z,18.83
2024-02-29T15:42:40.982Z,18.48
2024-02-29T15:45:09.836Z,19.35
2024-02-29T15:47:38.155Z,19.02
2024-02-29T15:50:09.093Z,19.27
2024-02-29T15:52:37.268Z,17.75
2024-02-29T15:55:06.183Z,18.63
2024-02-29T15:57:35.746Z,17.85
2024-02-29T16:00:06.539Z,18.80
2024-02-29T16:02:36.762Z,19.00
2024-02-29T16:05:06.036Z,17.52
2024-02-29T16:07:34.264Z,18.55
2024-02-29T16:10:03.294Z,17.40
2024-02-29T16:12:32.059Z,19.40
2024-02-29T16:15:01.831Z,18.30
2024-02-29T16:17:30.033Z,18.77
2024-02-29T16:19:58.330Z,19.17
2024-02-29T16:22:27.928Z,19.33
2024-02-29T16:24:56.616Z,22.70
2024-02-29T16:27:24.870Z,23.83
2024-02-29T16:29:53.059Z,25.23
2024-02-29T16:32:22.647Z,25.42
2024-02-29T16:34:50.854Z,25.90
2024-02-29T16:37:19.070Z,24.95
2024-02-29T16:39:47.305Z,26.45
2024-02-29T16:42:17.014Z,25.85
2024-02-29T16:44:46.465Z,26.08
2024-02-29T16:47:14.940Z,25.05
2024-02-29T16:49:46.224Z,26.27
2024-02-29T16:52:15.411Z,26.63
2024-02-29T16:54:43.685Z,23.80
2024-02-29T16:57:11.930Z,25.10
2024-02-29T16:59:40.665Z,24.88
2024-02-29T17:02:09.333Z,23.80
2024-02-29T17:04:37.603Z,23.77
2024-02-29T17:07:07.520Z,23.55
2024-02-29T17:09:38.021Z,24.00
2024-02-29T17:12:09.639Z,24.05
2024-02-29T17:14:38.084Z,22.52
2024-02-29T17:17:09.622Z,22.10
2024-02-29T17:19:38.245Z,21.35
2024-02-29T17:22:07.858Z,22.00
2024-02-29T17:24:37.611Z,23.13
2024-02-29T17:27:06.388Z,22.42
2024-02-29T17:29:34.578Z,21.55
2024-02-29T17:32:02.824Z,21.80
2024-02-29T17:34:31.050Z,22.30
2024-02-29T17:36:59.562Z,23.10
2024-02-29T17:39:30.213Z,23.23
2024-02-29T17:41:58.493Z,23.17
2024-02-29T17:44:26.684Z,22.30
2024-02-29T17:46:57.123Z,22.67
2024-02-29T17:49:25.525Z,22.38
2024-02-29T17:51:53.891Z,22.98
2024-02-29T17:54:22.087Z,29.00
2024-02-29T17:56:54.785Z,22.70
2024-02-29T17:59:23.101Z,23.00
2024-02-29T18:01:51.354Z,24.58
2024-02-29T18:04:19.615Z,23.90
2024-02-29T18:06:49.929Z,23.92
2024-02-29T18:09:19.493Z,22.33
2024-02-29T18:11:47.560Z,22.75
2024-02-29T18:14:19.097Z,23.88
2024-02-29T18:16:47.277Z,22.85
2024-02-29T18:19:15.789Z,23.10
2024-02-29T18:21:45.190Z,23.13
2024-02-29T18:24:14.506Z,22.58
2024-02-29T18:26:44.771Z,23.38
2024-02-29T18:29:14.354Z,22.83
2024-02-29T18:31:44.021Z,24.42
2024-02-29T18:34:12.244Z,22.65
2024-02-29T18:36:41.325Z,22.88
2024-02-29T18:39:13.037Z,23.35
2024-02-29T18:41:43.017Z,22.98
2024-02-29T18:44:12.140Z,24.05
2024-02-29T18:46:43.038Z,24.20
2024-02-29T18:49:15.515Z,23.17
2024-02-29T18:51:45.417Z,23.38
2024-02-29T18:54:13.951Z,23.48
2024-02-29T18:56:43.251Z,23.05
2024-02-29T18:59:11.411Z,22.90
2024-02-29T19:01:39.636Z,22.85
2024-02-29T19:04:08.040Z,23.13
2024-02-29T19:06:37.582Z,31.83
2024-02-29T19:09:09.252Z,23.17
2024-02-29T19:11:44.469Z,39.03
2024-02-29T19:14:15.842Z,26.90
2024-02-29T19:16:45.899Z,23.98
2024-02-29T19:19:20.445Z,23.45
2024-02-29T19:21:50.416Z,23.95
2024-02-29T19:24:18.564Z,25.38
2024-02-29T19:26:46.693Z,23.23
2024-02-29T19:29:15.044Z,23.88
2024-02-29T19:31:43.225Z,23.17
2024-02-29T19:34:11.612Z,23.30
2024-02-29T19:36:39.803Z,24.17
2024-02-29T19:39:09.287Z,26.02
2024-02-29T19:41:37.377Z,24.80
2024-02-29T19:44:05.835Z,23.95
2024-02-29T19:46:34.178Z,25.48
2024-02-29T19:49:02.580Z,25.52
2024-02-29T19:51:30.993Z,25.35
2024-02-29T19:53:59.142Z,23.80
2024-02-29T19:56:28.672Z,24.05
2024-02-29T19:58:56.794Z,25.27
2024-02-29T20:01:25.021Z,27.23
2024-02-29T20:03:53.353Z,27.95
2024-02-29T20:06:22.208Z,25.98
2024-02-29T20:08:50.370Z,28.48
2024-02-29T20:11:18.605Z,25.17
2024-02-29T20:13:48.929Z,42.13
2024-02-29T20:16:17.219Z,26.70
2024-02-29T20:18:46.132Z,34.85
2024-02-29T20:21:15.238Z,34.42
2024-02-29T20:23:43.362Z,26.83
2024-02-29T20:26:16.857Z,29.60
2024-02-29T20:28:45.043Z,34.55
2024-02-29T20:31:14.958Z,29.48
2024-02-29T20:33:43.145Z,34.72
2024-02-29T20:36:11.970Z,27.65
2024-02-29T20:38:40.240Z,35.35
2024-02-29T20:41:09.783Z,37.08
2024-02-29T20:43:38.185Z,40.08
2024-02-29T20:46:06.521Z,31.02
2024-02-29T20:48:36.260Z,34.15
2024-02-29T20:51:04.792Z,28.52
2024-02-29T20:53:33.054Z,26.30
2024-02-29T20:56:01.274Z,30.73
2024-02-29T20:58:29.480Z,30.38
2024-02-29T21:00:57.996Z,27.05
2024-02-29T21:03:26.577Z,27.80
2024-02-29T21:06:02.505Z,27.42
2024-02-29T21:08:33.385Z,26.92
2024-02-29T21:11:02.324Z,27.02
2024-02-29T21:13:32.060Z,28.00
2024-02-29T21:16:00.369Z,26.92
2024-02-29T21:18:28.630Z,26.80
2024-02-29T21:20:58.394Z,26.83
2024-02-29T21:23:26.510Z,26.85
2024-02-29T21:25:55.795Z,28.48
2024-02-29T21:28:23.928Z,27.13
2024-02-29T21:30:52.353Z,27.77
2024-02-29T21:33:21.450Z,27.83
2024-02-29T21:35:51.452Z,29.35
2024-02-29T21:38:21.316Z,29.05
2024-02-29T21:40:54.720Z,29.40
2024-02-29T21:43:26.598Z,30.40
2024-02-29T21:45:56.309Z,30.15
2024-02-29T21:48:24.647Z,32.42
2024-02-29T21:50:53.226Z,29.30
2024-02-29T21:53:24.157Z,29.10
2024-02-29T21:55:52.357Z,29.45
2024-02-29T21:58:20.512Z,31.25
2024-02-29T22:00:49.003Z,32.92
2024-02-29T22:03:17.222Z,30.33
2024-02-29T22:05:45.300Z,33.55
2024-02-29T22:08:13.436Z,31.70
2024-02-29T22:10:45.106Z,30.98
2024-02-29T22:13:13.898Z,31.42
2024-02-29T22:15:42.146Z,29.90
2024-02-29T22:18:10.294Z,30.42
2024-02-29T22:20:38.421Z,31.83
2024-02-29T22:23:06.462Z,32.38
2024-02-29T22:25:35.574Z,31.00
2024-02-29T22:28:05.535Z,31.33
2024-02-29T22:30:33.604Z,32.90
2024-02-29T22:33:01.924Z,31.55
2024-02-29T22:35:30.164Z,31.50
2024-02-29T22:37:58.429Z,30.80
2024-02-29T22:40:26.560Z,30.17
2024-02-29T22:42:54.652Z,31.35
2024-02-29T22:45:27.333Z,32.15
2024-02-29T22:47:55.484Z,31.60
2024-02-29T22:50:23.633Z,31.83
2024-02-29T22:52:59.508Z,34.35
2024-02-29T22:55:27.686Z,33.33
2024-02-29T22:57:55.835Z,33.67
2024-02-29T23:00:31.805Z,33.13
2024-02-29T23:03:00.310Z,32.33
2024-02-29T23:05:28.566Z,33.42
2024-02-29T23:07:56.877Z,32.88
2024-02-29T23:10:27.024Z,35.28
2024-02-29T23:12:56.043Z,34.67
2024-02-29T23:15:25.591Z,34.08
2024-02-29T23:17:56.130Z,33.78
2024-02-29T23:20:24.987Z,33.78
2024-02-29T23:22:54.042Z,35.35
2024-02-29T23:25:24.950Z,36.17
2024-02-29T23:27:53.789Z,34.47
2024-02-29T23:30:22.128Z,35.75
2024-02-29T23:32:51.989Z,34.75
2024-02-29T23:35:20.452Z,36.33
2024-02-29T23:37:48.790Z,35.60
2024-02-29T23:40:17.216Z,35.17
2024-02-29T23:42:46.146Z,36.75
2024-02-29T23:45:14.513Z,38.05
2024-02-29T23:47:42.860Z,38.72
2024-02-29T23:50:13.015Z,37.53
2024-02-29T23:52:41.396Z,37.58
2024-02-29T23:55:10.005Z,36.10
2024-02-29T23:57:38.465Z,35.58
